createdAt,value
2023-01-13T00:01:50.126Z,6.80
2023-01-13T00:04:19.603Z,6.60
2023-01-13T00:06:47.090Z,6.80
2023-01-13T00:09:14.517Z,6.90
2023-01-13T00:11:41.739Z,6.90
2023-01-13T00:14:09.024Z,6.90
2023-01-13T00:16:36.196Z,6.80
2023-01-13T00:19:03.635Z,6.60
2023-01-13T00:21:30.828Z,6.60
2023-01-13T00:23:58.301Z,6.60
2023-01-13T00:26:28.489Z,6.60
2023-01-13T00:29:02.932Z,6.50
2023-01-13T00:31:30.863Z,6.50
2023-01-13T00:34:00.162Z,6.40
2023-01-13T00:36:30.992Z,6.40
2023-01-13T00:38:59.322Z,6.50
2023-01-13T00:41:27.229Z,6.50
2023-01-13T00:43:54.461Z,6.50
2023-01-13T00:46:28.905Z,6.60
2023-01-13T00:48:59.454Z,6.60
2023-01-13T00:51:31.911Z,6.50
2023-01-13T00:53:59.129Z,6.40
2023-01-13T00:56:41.278Z,6.40
2023-01-13T00:59:11.982Z,6.50
2023-01-13T01:01:39.650Z,6.50
2023-01-13T01:04:12.461Z,6.40
2023-01-13T01:06:40.745Z,6.40
2023-01-13T01:09:08.158Z,6.50
2023-01-13T01:11:35.672Z,6.60
2023-01-13T01:14:04.373Z,6.70
2023-01-13T01:16:33.069Z,6.60
2023-01-13T01:19:06.228Z,6.60
2023-01-13T01:21:34.482Z,6.50
2023-01-13T01:24:14.105Z,6.40
2023-01-13T01:26:43.904Z,6.40
2023-01-13T01:29:15.654Z,6.30
2023-01-13T01:31:51.496Z,6.30
2023-01-13T01:34:37.607Z,6.40
2023-01-13T01:37:37.843Z,6.40
2023-01-13T01:40:19.836Z,6.30
2023-01-13T01:43:16.071Z,6.40
2023-01-13T01:45:59.419Z,6.40
2023-01-13T01:48:47.066Z,6.40
2023-01-13T01:51:28.064Z,6.30
2023-01-13T01:54:25.179Z,6.20
2023-01-13T01:56:55.983Z,6.30
2023-01-13T01:59:38.302Z,6.40
2023-01-13T02:02:11.802Z,6.30
2023-01-13T02:04:43.097Z,6.50
2023-01-13T02:07:10.796Z,6.50
2023-01-13T02:09:44.445Z,6.40
2023-01-13T02:12:30.231Z,6.40
2023-01-13T02:15:09.611Z,6.30
2023-01-13T02:18:11.967Z,6.30
2023-01-13T02:21:09.843Z,6.40
2023-01-13T02:24:03.886Z,6.50
2023-01-13T02:26:49.930Z,6.60
2023-01-13T02:30:34.211Z,6.60
2023-01-13T02:33:34.552Z,6.60
2023-01-13T02:36:13.322Z,6.50
2023-01-13T02:38:46.932Z,6.40
2023-01-13T02:42:00.969Z,6.50
2023-01-13T02:44:36.189Z,6.40
2023-01-13T02:47:13.331Z,6.50
2023-01-13T02:49:47.904Z,6.50
2023-01-13T02:52:23.779Z,6.50
2023-01-13T02:54:59.622Z,6.40
2023-01-13T02:57:29.969Z,6.40
2023-01-13T02:59:57.550Z,6.30
2023-01-13T03:02:26.166Z,6.40
2023-01-13T03:05:03.745Z,6.40
2023-01-13T03:07:52.406Z,6.20
2023-01-13T03:10:34.047Z,6.20
2023-01-13T03:13:06.884Z,6.40
2023-01-13T03:16:05.297Z,6.50
2023-01-13T03:19:13.407Z,6.50
2023-01-13T03:22:01.856Z,6.50
2023-01-13T03:24:47.277Z,6.40
2023-01-13T03:27:31.015Z,6.40
2023-01-13T03:30:24.363Z,6.30
2023-01-13T03:33:02.871Z,6.40
2023-01-13T03:35:44.197Z,6.50
2023-01-13T03:38:34.195Z,6.50
2023-01-13T03:41:23.471Z,6.60
2023-01-13T03:44:25.151Z,6.40
2023-01-13T03:47:22.876Z,6.40
2023-01-13T03:50:08.416Z,6.40
2023-01-13T03:52:40.647Z,6.50
2023-01-13T03:55:18.962Z,6.40
2023-01-13T03:58:02.507Z,6.50
2023-01-13T04:00:53.000Z,6.60
2023-01-13T04:03:52.656Z,6.60
2023-01-13T04:06:49.510Z,6.60
2023-01-13T04:09:41.591Z,6.40
2023-01-13T04:12:25.396Z,6.50
2023-01-13T04:15:02.075Z,6.50
2023-01-13T04:17:32.206Z,6.50
2023-01-13T04:20:01.791Z,6.50
2023-01-13T04:22:28.973Z,6.50
2023-01-13T04:24:59.436Z,6.50
2023-01-13T04:27:35.054Z,6.50
2023-01-13T04:30:02.379Z,6.60
2023-01-13T04:32:29.954Z,6.60
2023-01-13T04:35:00.343Z,6.50
2023-01-13T04:37:27.600Z,6.50
2023-01-13T04:39:55.206Z,6.30
2023-01-13T04:42:22.406Z,6.30
2023-01-13T04:44:49.648Z,6.40
2023-01-13T04:47:24.507Z,6.50
2023-01-13T04:49:53.999Z,6.40
2023-01-13T04:52:22.424Z,6.40
2023-01-13T04:54:55.466Z,6.50
2023-01-13T04:57:22.973Z,6.50
2023-01-13T04:59:50.278Z,6.40
2023-01-13T05:02:20.221Z,6.20
2023-01-13T05:04:48.616Z,6.10
2023-01-13T05:07:17.541Z,6.20
2023-01-13T05:09:49.711Z,6.10
2023-01-13T05:12:52.260Z,6.10
2023-01-13T05:15:38.312Z,6.10
2023-01-13T05:18:05.771Z,6.00
2023-01-13T05:20:33.323Z,6.10
2023-01-13T05:23:19.557Z,6.10
2023-01-13T05:25:48.585Z,6.00
2023-01-13T05:28:18.218Z,5.90
2023-01-13T05:30:49.595Z,6.10
2023-01-13T05:33:20.612Z,6.10
2023-01-13T05:35:52.581Z,6.20
2023-01-13T05:38:19.860Z,6.20
2023-01-13T05:41:05.642Z,6.20
2023-01-13T05:43:33.291Z,6.10
2023-01-13T05:46:07.067Z,5.80
2023-01-13T05:48:39.417Z,6.00
2023-01-13T05:51:09.290Z,5.80
2023-01-13T05:53:37.467Z,5.90
2023-01-13T05:56:08.629Z,6.00
2023-01-13T05:58:36.249Z,6.00
2023-01-13T06:01:06.590Z,5.90
2023-01-13T06:03:36.865Z,5.90
2023-01-13T06:06:09.223Z,5.90
2023-01-13T06:08:39.441Z,5.90
2023-01-13T06:11:07.210Z,5.90
2023-01-13T06:13:34.633Z,6.00
2023-01-13T06:16:01.925Z,6.00
2023-01-13T06:18:32.084Z,5.90
2023-01-13T06:20:59.309Z,5.80
2023-01-13T06:23:27.249Z,5.80
2023-01-13T06:26:07.202Z,5.70
2023-01-13T06:28:40.104Z,5.70
2023-01-13T06:31:11.866Z,5.70
2023-01-13T06:34:11.413Z,5.70
2023-01-13T06:36:57.360Z,5.50
2023-01-13T06:39:38.121Z,5.50
2023-01-13T06:42:23.937Z,5.40
2023-01-13T06:44:54.455Z,5.40
2023-01-13T06:47:28.442Z,5.40
2023-01-13T06:49:55.623Z,5.60
2023-01-13T06:52:23.687Z,5.70
2023-01-13T06:55:00.893Z,5.70
2023-01-13T06:57:30.694Z,5.90
2023-01-13T06:59:58.051Z,6.20
2023-01-13T07:02:25.343Z,6.40
2023-01-13T07:04:53.739Z,6.20
2023-01-13T07:07:23.841Z,6.20
2023-01-13T07:09:53.665Z,6.30
2023-01-13T07:12:21.985Z,6.40
2023-01-13T07:15:07.817Z,6.50
2023-01-13T07:17:35.229Z,6.60
2023-01-13T07:20:03.050Z,6.60
2023-01-13T07:22:30.197Z,6.70
2023-01-13T07:24:58.502Z,6.90
2023-01-13T07:27:25.701Z,6.90
2023-01-13T07:29:53.323Z,7.00
2023-01-13T07:32:20.683Z,7.00
2023-01-13T07:34:47.859Z,6.80
2023-01-13T07:37:24.454Z,6.80
2023-01-13T07:40:13.183Z,6.90
2023-01-13T07:42:58.801Z,7.00
2023-01-13T07:45:38.309Z,7.00
2023-01-13T07:48:08.230Z,7.20
2023-01-13T07:50:35.467Z,7.60
2023-01-13T07:53:21.184Z,7.60
2023-01-13T07:55:48.762Z,7.70
2023-01-13T07:58:16.142Z,7.80
2023-01-13T08:00:43.502Z,7.70
2023-01-13T08:03:10.853Z,7.80
2023-01-13T08:05:38.072Z,7.80
2023-01-13T08:08:05.465Z,7.90
2023-01-13T08:10:34.875Z,7.90
2023-01-13T08:13:21.242Z,8.00
2023-01-13T08:15:51.167Z,8.10
2023-01-13T08:18:22.688Z,8.20
2023-01-13T08:20:52.471Z,8.20
2023-01-13T08:23:21.108Z,8.20
2023-01-13T08:25:49.023Z,8.30
2023-01-13T08:28:19.670Z,8.50
2023-01-13T08:30:49.563Z,8.40
2023-01-13T08:33:16.949Z,8.20
2023-01-13T08:35:44.097Z,8.50
2023-01-13T08:38:11.337Z,8.80
2023-01-13T08:40:43.188Z,8.90
2023-01-13T08:43:10.388Z,8.90
2023-01-13T08:45:38.976Z,8.80
2023-01-13T08:48:07.354Z,9.00
2023-01-13T08:50:34.676Z,9.30
2023-01-13T08:53:05.059Z,9.60
2023-01-13T08:55:32.286Z,9.60
2023-01-13T08:58:15.291Z,9.50
2023-01-13T09:00:44.052Z,9.60
2023-01-13T09:03:18.841Z,9.40
2023-01-13T09:05:54.621Z,9.30
2023-01-13T09:08:21.825Z,9.20
2023-01-13T09:10:49.074Z,9.20
2023-01-13T09:13:17.237Z,9.10
2023-01-13T09:15:46.247Z,9.10
2023-01-13T09:18:16.315Z,9.00
2023-01-13T09:20:48.732Z,9.20
2023-01-13T09:23:17.310Z,9.40
2023-01-13T09:25:49.566Z,9.60
2023-01-13T09:28:16.712Z,9.60
2023-01-13T09:30:44.108Z,9.50
2023-01-13T09:33:31.986Z,9.30
2023-01-13T09:36:01.944Z,9.50
2023-01-13T09:38:30.772Z,9.40
2023-01-13T09:41:28.368Z,9.50
2023-01-13T09:44:01.463Z,9.60
2023-01-13T09:46:47.429Z,10.00
2023-01-13T09:49:38.234Z,10.10
2023-01-13T09:52:16.040Z,10.30
2023-01-13T09:54:46.087Z,10.40
2023-01-13T09:57:19.705Z,10.60
2023-01-13T09:59:47.667Z,10.40
2023-01-13T10:02:33.877Z,10.60
2023-01-13T10:05:13.233Z,10.60
2023-01-13T10:07:49.616Z,10.90
2023-01-13T10:10:39.168Z,11.10
2023-01-13T10:13:21.450Z,11.40
2023-01-13T10:16:07.739Z,11.90
2023-01-13T10:18:50.968Z,11.70
2023-01-13T10:21:53.107Z,12.00
2023-01-13T10:24:44.432Z,12.30
2023-01-13T10:27:40.232Z,12.50
2023-01-13T10:30:33.769Z,12.80
2023-01-13T10:33:07.481Z,12.90
2023-01-13T10:35:59.553Z,12.90
2023-01-13T10:38:35.988Z,12.80
2023-01-13T10:41:16.349Z,12.40
2023-01-13T10:43:44.962Z,12.40
2023-01-13T10:46:20.264Z,12.30
2023-01-13T10:48:59.372Z,12.00
2023-01-13T10:51:32.529Z,12.10
2023-01-13T10:54:24.836Z,12.00
2023-01-13T10:57:16.262Z,12.20
2023-01-13T10:59:45.187Z,12.40
2023-01-13T11:02:36.050Z,12.30
2023-01-13T11:05:16.842Z,12.50
2023-01-13T11:07:50.679Z,12.90
2023-01-13T11:10:21.075Z,13.20
2023-01-13T11:12:55.086Z,13.10
2023-01-13T11:15:39.815Z,12.80
2023-01-13T11:18:25.277Z,12.50
2023-01-13T11:20:55.921Z,13.20
2023-01-13T11:23:25.434Z,13.20
2023-01-13T11:25:59.747Z,13.10
2023-01-13T11:29:03.812Z,13.30
2023-01-13T11:31:45.040Z,13.20
2023-01-13T11:34:32.682Z,14.10
2023-01-13T11:37:04.378Z,14.30
2023-01-13T11:39:47.530Z,13.40
2023-01-13T11:42:31.755Z,12.90
2023-01-13T11:45:20.298Z,12.10
2023-01-13T11:47:54.534Z,11.70
2023-01-13T11:50:59.070Z,11.60
2023-01-13T11:53:50.904Z,11.60
2023-01-13T11:57:00.272Z,11.90
2023-01-13T12:00:00.055Z,11.70
2023-01-13T12:02:44.523Z,11.60
2023-01-13T12:05:29.305Z,11.70
2023-01-13T12:08:31.861Z,11.50
2023-01-13T12:11:15.211Z,11.50
2023-01-13T12:14:12.819Z,12.10
2023-01-13T12:16:49.168Z,12.80
2023-01-13T12:19:21.983Z,12.70
2023-01-13T12:22:16.720Z,12.30
2023-01-13T12:24:55.455Z,12.00
2023-01-13T12:27:48.224Z,11.70
2023-01-13T12:30:32.411Z,11.60
2023-01-13T12:33:18.645Z,11.40
2023-01-13T12:36:11.991Z,11.30
2023-01-13T12:39:27.890Z,11.20
2023-01-13T12:43:03.593Z,11.40
2023-01-13T12:45:33.438Z,11.10
2023-01-13T12:48:01.440Z,11.00
2023-01-13T12:50:31.010Z,11.00
2023-01-13T12:53:19.782Z,11.10
2023-01-13T12:55:52.151Z,11.10
2023-01-13T12:58:28.342Z,11.20
2023-01-13T13:01:15.260Z,11.20
2023-01-13T13:04:03.895Z,11.30
2023-01-13T13:06:32.466Z,11.10
2023-01-13T13:09:17.521Z,11.00
2023-01-13T13:12:01.021Z,11.10
2023-01-13T13:14:40.366Z,11.10
2023-01-13T13:17:51.012Z,10.90
2023-01-13T13:20:52.071Z,10.90
2023-01-13T13:24:09.255Z,10.70
2023-01-13T13:26:50.056Z,11.00
2023-01-13T13:29:58.171Z,11.20
2023-01-13T13:32:48.257Z,11.30
2023-01-13T13:35:52.447Z,11.00
2023-01-13T13:39:09.961Z,10.80
2023-01-13T13:42:05.536Z,11.20
2023-01-13T13:45:04.728Z,11.10
2023-01-13T13:47:38.403Z,10.80
2023-01-13T13:50:23.273Z,10.60
2023-01-13T13:52:58.920Z,10.50
2023-01-13T13:55:28.274Z,10.30
2023-01-13T13:57:57.631Z,10.40
2023-01-13T14:00:36.117Z,10.20
2023-01-13T14:03:26.019Z,10.20
2023-01-13T14:06:00.939Z,10.10
2023-01-13T14:08:30.391Z,10.10
2023-01-13T14:10:57.585Z,10.00
2023-01-13T14:13:29.036Z,9.90
2023-01-13T14:16:04.455Z,10.10
2023-01-13T14:18:39.981Z,10.10
2023-01-13T14:21:27.038Z,9.90
2023-01-13T14:23:58.401Z,9.90
2023-01-13T14:26:32.620Z,9.80
2023-01-13T14:29:03.891Z,10.00
2023-01-13T14:31:32.879Z,10.10
2023-01-13T14:34:02.971Z,10.20
2023-01-13T14:37:08.331Z,10.20
2023-01-13T14:39:41.649Z,9.90
2023-01-13T14:42:13.992Z,9.90
2023-01-13T14:44:46.999Z,9.80
2023-01-13T14:47:23.270Z,9.80
2023-01-13T14:50:01.174Z,9.80
2023-01-13T14:52:31.932Z,9.90
2023-01-13T14:55:11.229Z,9.90
2023-01-13T14:57:41.553Z,9.90
2023-01-13T15:00:17.555Z,9.80
2023-01-13T15:02:53.776Z,9.70
2023-01-13T15:05:28.925Z,9.60
2023-01-13T15:08:04.997Z,9.40
2023-01-13T15:11:08.590Z,9.30
2023-01-13T15:13:47.389Z,9.40
2023-01-13T15:16:25.916Z,9.40
2023-01-13T15:18:54.659Z,9.30
2023-01-13T15:21:22.156Z,9.10
2023-01-13T15:23:49.461Z,9.00
2023-01-13T15:26:33.178Z,8.90
2023-01-13T15:29:20.829Z,8.90
2023-01-13T15:31:48.160Z,8.90
2023-01-13T15:34:15.421Z,8.80
2023-01-13T15:36:42.733Z,8.70
2023-01-13T15:39:13.330Z,8.60
2023-01-13T15:41:59.046Z,8.60
2023-01-13T15:44:49.685Z,8.50
2023-01-13T15:47:30.325Z,8.40
2023-01-13T15:49:57.511Z,8.30
2023-01-13T15:52:27.253Z,8.30
2023-01-13T15:54:55.141Z,8.30
2023-01-13T15:57:31.933Z,8.20
2023-01-13T16:00:14.961Z,8.10
2023-01-13T16:02:45.342Z,8.20
2023-01-13T16:05:13.037Z,8.10
2023-01-13T16:07:40.497Z,8.10
2023-01-13T16:10:21.172Z,7.90
2023-01-13T16:12:51.248Z,7.90
2023-01-13T16:15:22.450Z,8.00
2023-01-13T16:17:57.834Z,8.10
2023-01-13T16:20:25.848Z,8.10
2023-01-13T16:22:53.065Z,8.00
2023-01-13T16:25:26.398Z,7.90
2023-01-13T16:27:53.697Z,7.90
2023-01-13T16:30:22.735Z,7.90
2023-01-13T16:32:50.452Z,7.80
2023-01-13T16:35:21.710Z,7.80
2023-01-13T16:37:54.017Z,7.80
2023-01-13T16:40:31.386Z,7.70
2023-01-13T16:43:10.224Z,7.70
2023-01-13T16:45:40.118Z,7.80
2023-01-13T16:48:20.456Z,7.70
2023-01-13T16:53:44.890Z,7.60
2023-01-13T16:56:49.914Z,7.70
2023-01-13T16:59:18.176Z,7.70
2023-01-13T17:02:06.070Z,7.60
2023-01-13T17:04:33.298Z,7.60
2023-01-13T17:07:04.553Z,7.50
2023-01-13T17:09:32.278Z,7.50
2023-01-13T17:11:59.732Z,7.60
2023-01-13T17:14:32.680Z,7.80
2023-01-13T17:17:01.182Z,7.80
2023-01-13T17:19:28.477Z,7.70
2023-01-13T17:21:55.722Z,7.60
2023-01-13T17:24:26.111Z,7.50
2023-01-13T17:26:53.473Z,7.50
2023-01-13T17:29:23.560Z,7.50
2023-01-13T17:31:52.660Z,7.30
2023-01-13T17:34:21.151Z,7.30
2023-01-13T17:36:48.946Z,7.30
2023-01-13T17:39:23.899Z,7.30
2023-01-13T17:41:53.695Z,7.20
2023-01-13T17:44:22.180Z,7.10
2023-01-13T17:46:49.972Z,7.20
2023-01-13T17:49:19.168Z,7.10
2023-01-13T17:51:48.421Z,7.00
2023-01-13T17:54:16.041Z,7.00
2023-01-13T17:56:43.979Z,7.00
2023-01-13T17:59:16.688Z,7.00
2023-01-13T18:01:44.532Z,6.90
2023-01-13T18:04:18.626Z,6.90
2023-01-13T18:06:46.921Z,6.90
2023-01-13T18:09:15.459Z,6.90
2023-01-13T18:11:44.463Z,6.80
2023-01-13T18:14:12.873Z,6.80
2023-01-13T18:16:40.618Z,6.80
2023-01-13T18:19:30.598Z,6.80
2023-01-13T18:22:18.415Z,6.80
2023-01-13T18:25:07.933Z,6.80
2023-01-13T18:27:42.207Z,6.80
2023-01-13T18:30:17.406Z,6.80
2023-01-13T18:32:50.415Z,6.80
2023-01-13T18:35:24.773Z,6.70
2023-01-13T18:38:14.127Z,6.70
2023-01-13T18:41:05.651Z,6.60
2023-01-13T18:43:52.401Z,6.60
2023-01-13T18:46:26.296Z,6.60
2023-01-13T18:49:31.411Z,6.60
2023-01-13T18:52:02.587Z,6.60
2023-01-13T18:54:30.102Z,6.50
2023-01-13T18:57:22.143Z,6.50
2023-01-13T18:59:49.484Z,6.50
2023-01-13T19:02:20.690Z,6.50
2023-01-13T19:04:48.366Z,6.60
2023-01-13T19:07:23.489Z,6.60
2023-01-13T19:09:51.039Z,6.60
2023-01-13T19:12:26.453Z,6.60
2023-01-13T19:14:58.092Z,6.50
2023-01-13T19:17:32.565Z,6.50
2023-01-13T19:20:00.503Z,6.40
2023-01-13T19:25:28.566Z,6.60
2023-01-13T19:28:15.767Z,6.60
2023-01-13T19:30:43.044Z,6.60
2023-01-13T19:33:21.941Z,6.50
2023-01-13T19:35:59.342Z,6.40
2023-01-13T19:38:29.545Z,6.30
2023-01-13T19:41:07.098Z,6.40
2023-01-13T19:43:52.770Z,6.20
2023-01-13T19:46:21.866Z,5.90
2023-01-13T19:48:59.664Z,5.90
2023-01-13T19:51:29.236Z,6.20
2023-01-13T19:54:00.965Z,6.10
2023-01-13T19:56:29.511Z,6.20
2023-01-13T19:58:57.058Z,5.70
2023-01-13T20:01:31.826Z,5.90
2023-01-13T20:04:03.490Z,6.00
2023-01-13T20:06:32.763Z,6.10
2023-01-13T20:08:59.974Z,6.20
2023-01-13T20:11:31.524Z,6.00
2023-01-13T20:14:01.066Z,5.90
2023-01-13T20:16:33.096Z,5.90
2023-01-13T20:19:00.845Z,5.80
2023-01-13T20:21:31.169Z,5.80
2023-01-13T20:23:58.371Z,5.90
2023-01-13T20:26:26.816Z,5.90
2023-01-13T20:28:59.600Z,5.90
2023-01-13T20:31:29.158Z,5.90
2023-01-13T20:34:00.238Z,5.90
2023-01-13T20:36:34.028Z,5.80
2023-01-13T20:39:06.260Z,5.80
2023-01-13T20:41:56.728Z,5.80
2023-01-13T20:44:33.317Z,5.90
2023-01-13T20:47:02.948Z,5.80
2023-01-13T20:49:31.559Z,5.60
2023-01-13T20:51:59.011Z,5.50
2023-01-13T20:54:33.352Z,5.60
2023-01-13T20:57:05.332Z,5.30
2023-01-13T20:59:39.593Z,5.30
2023-01-13T21:02:14.368Z,5.20
2023-01-13T21:04:45.605Z,5.30
2023-01-13T21:07:13.169Z,5.20
2023-01-13T21:09:40.718Z,5.10
2023-01-13T21:12:29.335Z,5.00
2023-01-13T21:15:15.281Z,4.80
2023-01-13T21:18:01.415Z,4.80
2023-01-13T21:20:34.238Z,4.60
2023-01-13T21:23:03.137Z,4.70
2023-01-13T21:25:35.617Z,4.70
2023-01-13T21:28:09.576Z,4.70
2023-01-13T21:30:38.989Z,4.60
2023-01-13T21:33:08.092Z,4.80
2023-01-13T21:35:39.985Z,5.00
2023-01-13T21:38:13.963Z,4.80
2023-01-13T21:40:42.309Z,4.40
2023-01-13T21:43:31.737Z,4.50
2023-01-13T21:46:18.446Z,4.50
2023-01-13T21:48:45.639Z,4.50
2023-01-13T21:51:13.965Z,4.40
2023-01-13T21:53:43.881Z,4.50
2023-01-13T21:56:13.659Z,4.30
2023-01-13T21:58:41.811Z,4.30
2023-01-13T22:01:11.946Z,4.30
2023-01-13T22:04:01.222Z,4.30
2023-01-13T22:06:28.763Z,4.20
2023-01-13T22:09:00.175Z,4.20
2023-01-13T22:11:34.814Z,4.40
2023-01-13T22:14:09.541Z,4.30
2023-01-13T22:16:45.255Z,4.30
2023-01-13T22:19:12.660Z,4.30
2023-01-13T22:21:42.771Z,4.40
2023-01-13T22:24:13.014Z,4.50
2023-01-13T22:26:43.987Z,4.40
2023-01-13T22:29:11.165Z,4.50
2023-01-13T22:31:38.545Z,4.30
2023-01-13T22:34:05.779Z,4.30
2023-01-13T22:36:42.633Z,4.30
2023-01-13T22:39:12.793Z,4.40
2023-01-13T22:41:50.085Z,4.50
2023-01-13T22:44:22.370Z,4.60
2023-01-13T22:47:09.758Z,4.70
2023-01-13T22:52:52.009Z,4.70
2023-01-13T22:55:20.293Z,4.70
2023-01-13T22:57:48.535Z,4.60
2023-01-13T23:00:19.457Z,4.40
2023-01-13T23:02:47.349Z,4.40
2023-01-13T23:05:14.639Z,4.50
2023-01-13T23:07:42.286Z,4.60
2023-01-13T23:10:09.949Z,4.40
2023-01-13T23:12:37.236Z,4.00
2023-01-13T23:15:06.156Z,3.60
2023-01-13T23:17:36.981Z,3.30
2023-01-13T23:20:08.922Z,3.50
2023-01-13T23:22:43.521Z,3.50
2023-01-13T23:25:11.776Z,3.40
2023-01-13T23:27:39.052Z,3.30
2023-01-13T23:30:09.497Z,3.00
2023-01-13T23:32:36.694Z,3.00
2023-01-13T23:35:06.460Z,2.90
2023-01-13T23:37:34.519Z,3.00
2023-01-13T23:40:04.044Z,3.10
2023-01-13T23:42:31.528Z,3.10
2023-01-13T23:44:58.716Z,3.20
2023-01-13T23:47:30.166Z,3.20
2023-01-13T23:49:57.407Z,3.10
2023-01-13T23:52:24.710Z,3.20
2023-01-13T23:54:52.215Z,3.20
2023-01-13T23:57:19.438Z,3.40
2023-01-13T23:59:46.586Z,3.60
